Time;durP1;ratioP1;P1;durP2;ratioP2;P2;SDS_P1;SDS_P2;PMS_P1;PMS_P2;Temp;Humidity;BMP_temperature;BMP_pressure;BME280_temperature;BME280_humidity;BME280_pressure;Samples;Min_cycle;Max_cycle;Signal;HPM_P1;HPM_P2
2021/09/23 00:00:50;;;;;;;20.90;18.13;;;9.60;1.00;;;;;;5054509;28;20815;-52
2021/09/23 00:03:32;;;;;;;27.57;22.40;;;9.50;99.90;;;;;;5055397;28;20518;-53
2021/09/23 00:06:03;;;;;;;28.77;22.53;;;9.50;1.00;;;;;;5056600;28;20466;-55
2021/09/23 00:08:30;;;;;;;27.00;22.17;;;9.60;1.00;;;;;;5057563;28;20884;-56
2021/09/23 00:10:58;;;;;;;27.00;22.07;;;9.50;1.00;;;;;;5057541;28;20904;-56
2021/09/23 00:13:29;;;;;;;29.00;23.17;;;9.50;13.10;;;;;;5055673;28;20451;-56
2021/09/23 00:15:56;;;;;;;28.93;24.30;;;9.60;44.90;;;;;;5060556;28;20497;-57
2021/09/23 00:18:28;;;;;;;31.80;24.10;;;9.50;23.40;;;;;;5054894;28;20545;-54
2021/09/23 00:20:56;;;;;;;30.97;24.03;;;9.50;99.90;;;;;;5057384;28;20937;-55
2021/09/23 00:23:23;;;;;;;32.97;24.90;;;9.50;99.90;;;;;;5058223;28;20920;-56
2021/09/23 00:25:50;;;;;;;28.40;23.07;;;9.50;98.60;;;;;;5054537;28;20466;-56
2021/09/23 00:28:17;;;;;;;31.23;22.87;;;9.50;99.90;;;;;;5044432;28;20471;-55
2021/09/23 00:30:44;;;;;;;29.70;24.10;;;9.50;99.90;;;;;;5045393;28;20490;-57
2021/09/23 00:33:11;;;;;;;34.40;25.50;;;9.40;31.50;;;;;;5057826;28;20508;-56
2021/09/23 00:35:40;;;;;;;25.43;21.50;;;9.20;35.00;;;;;;5056991;28;20462;-56
2021/09/23 00:38:07;;;;;;;27.20;22.43;;;9.20;99.90;;;;;;5055226;28;20466;-53
2021/09/23 00:40:37;;;;;;;29.20;23.47;;;9.20;99.90;;;;;;5046743;28;20467;-57
2021/09/23 00:43:05;;;;;;;30.00;22.97;;;9.20;99.90;;;;;;5042706;28;20471;-57
2021/09/23 00:45:32;;;;;;;26.57;22.70;;;9.20;99.90;;;;;;5051006;28;20470;-54
2021/09/23 00:47:59;;;;;;;26.90;22.20;;;9.20;94.80;;;;;;5053802;28;20433;-54
2021/09/23 00:50:29;;;;;;;23.97;21.10;;;9.10;99.90;;;;;;5054874;28;21004;-55
2021/09/23 00:53:00;;;;;;;22.50;19.73;;;9.10;99.90;;;;;;5056887;28;20489;-54
2021/09/23 00:55:29;;;;;;;25.07;19.80;;;9.20;71.40;;;;;;5056568;28;20454;-57
2021/09/23 00:57:57;;;;;;;30.70;23.07;;;9.20;46.10;;;;;;5056083;28;20439;-56
2021/09/23 01:00:25;;;;;;;33.47;24.53;;;9.20;1.00;;;;;;5056227;28;20454;-54
2021/09/23 01:02:52;;;;;;;32.40;24.30;;;9.20;13.10;;;;;;5056485;28;20465;-54
2021/09/23 01:05:19;;;;;;;28.03;23.70;;;9.20;30.30;;;;;;5037560;28;20495;-55
2021/09/23 01:07:48;;;;;;;29.63;24.10;;;9.20;89.80;;;;;;5045908;28;20441;-57
2021/09/23 01:10:18;;;;;;;30.87;25.40;;;9.20;38.40;;;;;;5048319;28;20487;-56
2021/09/23 01:12:45;;;;;;;31.90;25.83;;;9.20;74.60;;;;;;5036906;28;20529;-56
2021/09/23 01:15:15;;;;;;;36.10;25.97;;;9.30;99.90;;;;;;5035786;28;20463;-55
2021/09/23 01:17:43;;;;;;;37.57;26.07;;;9.30;99.90;;;;;;5036091;28;20521;-57
2021/09/23 01:20:11;;;;;;;34.30;25.27;;;9.40;99.90;;;;;;5042185;28;20465;-55
2021/09/23 01:22:40;;;;;;;28.33;23.80;;;9.20;99.90;;;;;;5052097;28;20469;-56
2021/09/23 01:25:11;;;;;;;31.73;25.77;;;9.10;99.90;;;;;;5056622;28;20494;-57
2021/09/23 01:27:38;;;;;;;26.97;23.17;;;9.00;99.90;;;;;;5056440;28;20516;-53
2021/09/23 01:30:06;;;;;;;33.07;24.00;;;8.90;32.60;;;;;;5060053;28;20483;-57
2021/09/23 01:32:33;;;;;;;31.20;24.33;;;9.00;30.90;;;;;;5060892;28;20784;-54
2021/09/23 01:35:02;;;;;;;30.60;25.40;;;9.00;21.20;;;;;;5061289;28;20454;-56
2021/09/23 01:37:29;;;;;;;31.33;23.80;;;9.00;29.80;;;;;;5060323;28;20466;-54
2021/09/23 01:39:58;;;;;;;33.87;25.20;;;9.00;88.90;;;;;;5060402;28;20516;-54
2021/09/23 01:42:25;;;;;;;33.07;25.23;;;9.00;89.40;;;;;;5059982;28;20540;-56
2021/09/23 01:44:52;;;;;;;32.90;25.57;;;9.00;99.90;;;;;;5059998;28;20589;-57
2021/09/23 01:47:19;;;;;;;34.57;26.37;;;9.00;99.90;;;;;;5060793;28;20563;-56
2021/09/23 01:49:46;;;;;;;29.63;24.43;;;9.00;99.90;;;;;;5059963;28;20831;-56
2021/09/23 01:52:14;;;;;;;29.20;25.83;;;9.10;99.90;;;;;;5060240;28;20531;-56
2021/09/23 01:54:41;;;;;;;33.33;26.30;;;9.10;99.90;;;;;;5060450;28;20979;-54
2021/09/23 01:57:09;;;;;;;33.50;25.20;;;9.10;99.90;;;;;;5060567;28;20462;-56
2021/09/23 01:59:36;;;;;;;28.57;22.97;;;9.10;99.90;;;;;;5060153;28;20462;-57
2021/09/23 02:02:03;;;;;;;28.30;24.80;;;9.10;99.90;;;;;;5060021;28;20498;-57
2021/09/23 02:04:30;;;;;;;29.53;24.60;;;9.10;83.20;;;;;;5060060;28;20493;-57
2021/09/23 02:06:57;;;;;;;33.00;25.30;;;9.10;33.90;;;;;;5060369;28;20473;-56
2021/09/23 02:09:23;;;;;;;29.03;23.80;;;9.10;58.90;;;;;;5060147;28;20549;-54
2021/09/23 02:11:50;;;;;;;27.90;22.93;;;9.10;99.90;;;;;;5060446;28;20482;-58
2021/09/23 02:14:19;;;;;;;27.40;22.90;;;9.20;99.90;;;;;;5059549;28;20505;-56
2021/09/23 02:16:46;;;;;;;32.70;24.13;;;9.30;99.90;;;;;;5060421;28;20461;-58
2021/09/23 02:19:13;;;;;;;26.90;23.57;;;9.50;99.90;;;;;;5060014;28;20562;-58
2021/09/23 02:21:39;;;;;;;28.83;23.53;;;9.50;99.90;;;;;;5059949;28;20493;-56
2021/09/23 02:24:07;;;;;;;28.20;22.47;;;9.50;99.90;;;;;;5059537;28;20489;-58
2021/09/23 02:26:34;;;;;;;26.60;22.13;;;9.40;99.90;;;;;;5059654;28;20486;-55
2021/09/23 02:29:01;;;;;;;26.93;21.50;;;9.40;99.90;;;;;;5059869;28;20497;-58
2021/09/23 02:31:29;;;;;;;26.80;22.20;;;9.40;99.90;;;;;;5059339;28;20998;-57
2021/09/23 02:33:56;;;;;;;27.43;21.67;;;9.30;99.90;;;;;;5059570;28;20472;-57
2021/09/23 02:36:23;;;;;;;25.43;22.20;;;9.30;99.90;;;;;;5059673;28;20489;-58
2021/09/23 02:38:50;;;;;;;30.23;20.03;;;9.30;99.90;;;;;;5059309;28;20462;-58
2021/09/23 02:41:17;;;;;;;23.53;20.80;;;9.40;99.90;;;;;;5059638;28;20812;-58
2021/09/23 02:43:44;;;;;;;29.03;19.67;;;9.50;99.90;;;;;;5059070;28;20527;-58
2021/09/23 02:46:11;;;;;;;22.87;19.67;;;9.60;99.90;;;;;;5059178;28;20462;-58
2021/09/23 02:48:39;;;;;;;25.07;19.37;;;9.70;99.90;;;;;;5059548;28;20552;-58
2021/09/23 02:51:08;;;;;;;20.90;18.03;;;10.00;99.90;;;;;;5059085;28;20472;-58
2021/09/23 02:53:35;;;;;;;21.10;18.73;;;10.10;99.90;;;;;;5058769;28;20473;-58
2021/09/23 02:56:02;;;;;;;22.60;18.53;;;10.40;99.90;;;;;;5058402;28;20498;-58
2021/09/23 02:58:29;;;;;;;19.80;17.40;;;10.40;99.90;;;;;;5058723;28;20524;-59
2021/09/23 03:00:56;;;;;;;20.13;17.97;;;10.50;99.90;;;;;;5058737;28;20466;-58
2021/09/23 03:03:25;;;;;;;19.37;16.10;;;10.40;99.90;;;;;;5059151;28;20470;-59
2021/09/23 03:05:54;;;;;;;19.00;15.67;;;10.50;99.90;;;;;;5058927;28;20469;-58
2021/09/23 03:08:23;;;;;;;19.80;17.10;;;10.40;99.90;;;;;;5059297;28;20459;-59
2021/09/23 03:10:50;;;;;;;17.23;15.40;;;10.40;99.90;;;;;;5045729;28;20529;-59
2021/09/23 03:13:16;;;;;;;23.27;17.13;;;10.40;99.90;;;;;;5055511;28;20976;-59
2021/09/23 03:15:43;;;;;;;18.70;16.70;;;10.30;99.90;;;;;;5058342;28;20458;-58
2021/09/23 03:18:10;;;;;;;17.63;15.83;;;10.20;99.90;;;;;;5038708;28;20464;-59
2021/09/23 03:20:40;;;;;;;16.50;14.80;;;10.10;99.90;;;;;;5042834;28;20520;-59
2021/09/23 03:23:09;;;;;;;18.40;15.80;;;10.00;99.90;;;;;;5059085;28;20477;-59
2021/09/23 03:25:36;;;;;;;17.70;15.90;;;9.90;99.40;;;;;;5057334;28;20494;-59
2021/09/23 03:28:04;;;;;;;16.90;14.60;;;9.80;99.90;;;;;;5058528;28;20516;-59
2021/09/23 03:30:32;;;;;;;16.53;14.77;;;9.70;99.90;;;;;;5058218;28;20491;-59
2021/09/23 03:32:59;;;;;;;19.77;16.10;;;9.70;99.90;;;;;;5058285;28;20905;-59
2021/09/23 03:35:26;;;;;;;18.73;16.53;;;9.60;99.90;;;;;;5058548;28;21213;-59
2021/09/23 03:37:53;;;;;;;21.13;16.87;;;9.60;99.90;;;;;;5057726;28;20515;-60
2021/09/23 03:40:22;;;;;;;22.97;18.30;;;9.50;99.90;;;;;;5057961;28;20776;-60
2021/09/23 03:42:49;;;;;;;23.77;18.77;;;9.50;99.90;;;;;;5058214;28;20532;-60
2021/09/23 03:45:15;;;;;;;22.40;20.00;;;9.50;99.90;;;;;;5057971;28;20513;-60
2021/09/23 03:47:42;;;;;;;25.63;19.77;;;9.50;99.90;;;;;;5058305;28;20467;-60
2021/09/23 03:50:11;;;;;;;18.73;16.47;;;9.50;99.90;;;;;;5058136;28;20817;-60
2021/09/23 03:52:38;;;;;;;23.87;18.23;;;9.50;99.90;;;;;;5057817;28;20770;-59
2021/09/23 03:55:08;;;;;;;20.63;18.50;;;9.40;99.90;;;;;;5058063;28;20458;-59
2021/09/23 03:57:36;;;;;;;23.40;18.10;;;9.40;99.90;;;;;;5057629;28;20462;-59
2021/09/23 04:00:05;;;;;;;20.97;18.07;;;9.30;99.90;;;;;;5058170;28;20462;-59
2021/09/23 04:02:32;;;;;;;20.00;17.50;;;9.30;99.90;;;;;;5057340;28;20470;-59
2021/09/23 04:05:01;;;;;;;20.90;17.20;;;9.40;99.90;;;;;;5057824;28;20583;-60
2021/09/23 04:07:29;;;;;;;18.13;15.83;;;9.30;99.90;;;;;;5058192;28;20754;-59
2021/09/23 04:09:55;;;;;;;21.30;17.10;;;9.30;99.90;;;;;;5057085;28;20908;-59
2021/09/23 04:12:22;;;;;;;27.00;18.57;;;9.40;99.90;;;;;;5057797;28;20491;-59
2021/09/23 04:14:51;;;;;;;19.20;14.87;;;9.30;99.90;;;;;;5057271;28;20517;-59
2021/09/23 04:17:19;;;;;;;22.87;15.90;;;9.30;99.90;;;;;;5057141;28;20459;-59
2021/09/23 04:19:46;;;;;;;19.50;15.83;;;9.20;99.90;;;;;;5057483;28;20463;-59
2021/09/23 04:22:16;;;;;;;20.50;15.30;;;9.20;99.90;;;;;;5057496;28;20441;-59
2021/09/23 04:24:46;;;;;;;18.20;16.13;;;9.20;99.90;;;;;;5057535;28;20560;-60
2021/09/23 04:27:14;;;;;;;25.80;20.07;;;9.10;99.90;;;;;;5057702;28;20516;-60
2021/09/23 04:29:43;;;;;;;24.70;22.20;;;9.10;99.90;;;;;;5056546;28;20566;-60
2021/09/23 04:32:12;;;;;;;22.77;19.13;;;9.10;99.90;;;;;;5056685;28;20462;-60
2021/09/23 04:34:39;;;;;;;18.70;16.60;;;9.20;99.90;;;;;;5057247;28;20751;-60
2021/09/23 04:37:07;;;;;;;18.20;15.90;;;9.20;99.90;;;;;;5057007;28;20515;-61
2021/09/23 04:39:34;;;;;;;21.53;16.17;;;9.20;99.90;;;;;;5057212;28;20836;-60
2021/09/23 04:42:01;;;;;;;16.97;15.17;;;9.20;99.90;;;;;;5057086;28;20524;-60
2021/09/23 04:44:28;;;;;;;20.80;16.93;;;9.20;99.90;;;;;;5056919;28;20529;-60
2021/09/23 04:46:55;;;;;;;23.50;16.20;;;9.10;99.90;;;;;;5057408;28;20498;-60
2021/09/23 04:49:24;;;;;;;18.00;15.37;;;9.00;99.90;;;;;;5054555;28;20543;-60
2021/09/23 04:51:54;;;;;;;18.30;16.13;;;9.00;99.90;;;;;;5056764;28;20470;-60
2021/09/23 04:54:21;;;;;;;18.77;16.73;;;9.00;99.90;;;;;;5056401;28;20458;-60
2021/09/23 04:56:48;;;;;;;19.43;17.33;;;9.00;99.90;;;;;;5057364;28;20553;-60
2021/09/23 04:59:18;;;;;;;20.67;18.00;;;9.00;99.90;;;;;;5055640;28;20498;-60
2021/09/23 05:01:45;;;;;;;20.43;17.50;;;8.90;99.90;;;;;;5036859;28;20947;-60
2021/09/23 05:04:15;;;;;;;33.43;24.90;;;8.90;99.90;;;;;;5051556;28;20502;-60
2021/09/23 05:06:45;;;;;;;29.73;26.53;;;8.90;99.90;;;;;;5047739;28;20473;-60
2021/09/23 05:09:12;;;;;;;27.20;20.07;;;8.90;99.90;;;;;;5044525;28;20471;-60
2021/09/23 05:11:39;;;;;;;21.07;18.67;;;8.90;99.90;;;;;;5056030;28;20532;-60
2021/09/23 05:14:09;;;;;;;27.30;22.40;;;8.90;99.90;;;;;;5055526;28;20506;-60
2021/09/23 05:16:43;;;;;;;22.23;17.63;;;8.90;99.90;;;;;;5044092;28;20467;-60
2021/09/23 05:19:10;;;;;;;28.87;24.47;;;8.90;99.90;;;;;;5051485;28;20470;-61
2021/09/23 05:21:37;;;;;;;21.83;18.30;;;8.90;99.90;;;;;;5054432;28;20509;-61
2021/09/23 05:24:13;;;;;;;19.10;16.37;;;8.90;99.90;;;;;;5049823;28;20951;-61
2021/09/23 05:26:42;;;;;;;20.73;18.50;;;8.80;99.90;;;;;;5034832;28;20530;-61
2021/09/23 05:29:09;;;;;;;22.07;16.27;;;8.80;99.90;;;;;;5037966;28;20552;-61
2021/09/23 05:31:37;;;;;;;20.90;16.40;;;8.80;99.90;;;;;;5049451;28;20556;-61
2021/09/23 05:34:06;;;;;;;19.53;15.40;;;8.80;99.90;;;;;;5046849;28;20466;-62
2021/09/23 05:36:35;;;;;;;21.30;16.37;;;8.90;99.90;;;;;;5056588;28;20910;-61
2021/09/23 05:39:03;;;;;;;18.27;15.67;;;9.00;99.90;;;;;;5056850;28;20481;-61
2021/09/23 05:41:33;;;;;;;17.50;15.63;;;9.00;99.90;;;;;;5056678;28;20454;-61
2021/09/23 05:44:00;;;;;;;18.73;16.20;;;9.10;99.90;;;;;;5056391;28;20469;-61
2021/09/23 05:46:27;;;;;;;17.77;16.00;;;9.20;99.90;;;;;;5056210;28;20879;-61
2021/09/23 05:48:54;;;;;;;20.43;15.83;;;9.40;99.90;;;;;;5056394;28;20458;-61
2021/09/23 05:51:24;;;;;;;17.93;15.10;;;9.50;99.90;;;;;;5056571;28;20779;-61
2021/09/23 05:53:51;;;;;;;17.70;15.80;;;9.60;99.90;;;;;;5056388;28;20481;-61
2021/09/23 05:56:18;;;;;;;16.77;15.00;;;9.70;99.90;;;;;;5054871;28;20458;-61
2021/09/23 05:58:51;;;;;;;17.00;14.60;;;9.70;99.90;;;;;;5055763;28;20445;-61
2021/09/23 06:01:18;;;;;;;18.50;14.30;;;9.90;99.90;;;;;;5054991;28;20477;-61
2021/09/23 06:03:45;;;;;;;20.67;14.50;;;10.00;99.90;;;;;;5055245;28;20470;-61
2021/09/23 06:06:15;;;;;;;16.63;14.03;;;10.10;99.90;;;;;;5055782;28;20957;-61
2021/09/23 06:08:42;;;;;;;19.67;14.63;;;10.20;99.90;;;;;;5056226;28;20954;-61
2021/09/23 06:11:10;;;;;;;15.93;14.03;;;10.30;99.90;;;;;;5040481;28;20545;-61
2021/09/23 06:13:38;;;;;;;17.37;13.20;;;10.40;99.90;;;;;;5035844;28;20437;-61
2021/09/23 06:16:06;;;;;;;18.63;13.40;;;10.60;99.90;;;;;;5046057;28;20504;-61
2021/09/23 06:18:33;;;;;;;17.50;13.30;;;10.70;99.90;;;;;;5060279;28;20462;-61
2021/09/23 06:21:00;;;;;;;14.50;13.10;;;10.80;99.90;;;;;;5059088;28;20511;-61
2021/09/23 06:23:27;;;;;;;13.83;12.40;;;11.00;99.90;;;;;;5060372;28;20469;-61
2021/09/23 06:25:54;;;;;;;18.13;12.67;;;11.10;1.00;;;;;;5059291;28;20490;-61
2021/09/23 06:28:21;;;;;;;13.93;12.50;;;11.30;1.00;;;;;;5059696;28;20462;-62
2021/09/23 06:30:49;;;;;;;14.30;12.40;;;11.50;1.00;;;;;;5058982;28;20498;-62
2021/09/23 06:33:20;;;;;;;14.30;12.40;;;11.60;1.00;;;;;;5059740;28;20516;-62
2021/09/23 06:35:47;;;;;;;14.70;12.63;;;11.70;99.90;;;;;;5059737;28;20458;-62
2021/09/23 06:38:16;;;;;;;12.33;11.13;;;11.90;1.00;;;;;;5059534;28;20925;-61
2021/09/23 06:40:43;;;;;;;16.77;12.10;;;12.10;99.90;;;;;;5058927;28;20461;-61
2021/09/23 06:43:10;;;;;;;15.33;13.37;;;12.30;1.00;;;;;;5059252;28;20461;-61
2021/09/23 06:45:37;;;;;;;13.60;12.20;;;12.40;99.90;;;;;;5046661;28;20491;-61
2021/09/23 06:48:08;;;;;;;14.30;12.10;;;12.40;99.90;;;;;;5038739;28;20463;-61
2021/09/23 06:50:38;;;;;;;15.30;11.87;;;12.70;99.90;;;;;;5039156;28;20463;-61
2021/09/23 06:53:05;;;;;;;14.70;11.13;;;13.00;1.00;;;;;;5039958;28;20905;-61
2021/09/23 06:55:32;;;;;;;15.37;11.47;;;13.20;1.00;;;;;;5039980;28;20492;-61
2021/09/23 06:57:59;;;;;;;13.50;11.37;;;13.40;99.90;;;;;;5039357;28;20464;-61
2021/09/23 07:00:30;;;;;;;13.17;11.10;;;13.60;99.90;;;;;;5039469;28;20463;-60
2021/09/23 07:03:00;;;;;;;14.13;12.37;;;13.70;99.90;;;;;;5039393;28;20770;-60
2021/09/23 07:05:28;;;;;;;13.33;11.60;;;13.90;99.90;;;;;;5039266;28;20877;-60
2021/09/23 07:07:56;;;;;;;13.53;11.53;;;14.20;99.90;;;;;;5046746;28;20462;-60
2021/09/23 07:10:23;;;;;;;12.50;11.30;;;14.50;37.70;;;;;;5058949;28;20454;-60
2021/09/23 07:12:50;;;;;;;13.50;11.77;;;14.50;1.00;;;;;;5059202;28;20748;-60
2021/09/23 07:15:19;;;;;;;10.80;9.80;;;14.70;1.00;;;;;;5058414;28;20493;-60
2021/09/23 07:17:46;;;;;;;12.27;10.70;;;14.80;1.00;;;;;;5058487;28;20474;-59
2021/09/23 07:20:14;;;;;;;11.67;10.30;;;14.90;1.00;;;;;;5058934;28;20511;-59
2021/09/23 07:22:41;;;;;;;10.70;9.40;;;15.30;1.00;;;;;;5059096;28;20520;-59
2021/09/23 07:25:10;;;;;;;14.73;9.20;;;15.20;1.00;;;;;;5059076;28;20520;-59
2021/09/23 07:27:38;;;;;;;13.70;9.37;;;15.30;1.00;;;;;;5057933;28;20462;-59
2021/09/23 07:30:08;;;;;;;10.30;9.20;;;15.30;1.00;;;;;;5058470;28;20951;-59
2021/09/23 07:32:35;;;;;;;10.80;9.70;;;15.40;1.00;;;;;;5059200;28;20489;-54
2021/09/23 07:35:04;;;;;;;10.63;9.30;;;15.60;1.00;;;;;;5059150;28;20519;-55
2021/09/23 07:37:32;;;;;;;10.20;9.20;;;15.70;1.00;;;;;;5058856;28;20516;-58
2021/09/23 07:39:59;;;;;;;11.57;10.07;;;15.80;1.00;;;;;;5058299;28;20466;-55
2021/09/23 07:42:29;;;;;;;13.13;8.90;;;15.90;1.00;;;;;;5058461;28;20501;-57
2021/09/23 07:44:56;;;;;;;10.40;8.90;;;16.00;1.00;;;;;;5058745;28;20744;-57
2021/09/23 07:47:23;;;;;;;11.97;9.57;;;16.10;1.00;;;;;;5058592;28;20940;-55
2021/09/23 07:49:50;;;;;;;10.40;9.00;;;16.20;1.00;;;;;;5055473;28;20528;-51
2021/09/23 07:52:20;;;;;;;10.00;8.77;;;16.40;1.00;;;;;;5057264;28;20462;-57
2021/09/23 07:54:47;;;;;;;10.50;8.70;;;16.70;1.00;;;;;;5058276;28;20834;-53
2021/09/23 07:57:14;;;;;;;10.83;9.03;;;16.80;99.90;;;;;;5057381;28;20880;-55
2021/09/23 07:59:43;;;;;;;8.73;7.83;;;17.00;99.90;;;;;;5057331;28;20536;-57
2021/09/23 08:02:10;;;;;;;12.33;8.40;;;17.10;99.90;;;;;;5056794;28;20549;-53
2021/09/23 08:04:38;;;;;;;10.70;8.83;;;17.20;99.90;;;;;;5057618;28;20462;-50
2021/09/23 08:07:07;;;;;;;9.50;8.60;;;17.20;99.90;;;;;;5058171;28;20501;-56
2021/09/23 08:09:34;;;;;;;9.80;8.80;;;17.10;99.90;;;;;;5054934;28;20462;-54
2021/09/23 08:12:04;;;;;;;10.50;9.37;;;17.30;99.90;;;;;;5042653;28;20553;-55
2021/09/23 08:14:34;;;;;;;10.27;8.93;;;17.30;99.90;;;;;;5057820;28;20466;-55
2021/09/23 08:17:05;;;;;;;8.33;7.63;;;17.40;99.90;;;;;;5057717;28;20555;-55
2021/09/23 08:19:32;;;;;;;9.63;8.73;;;17.70;99.90;;;;;;5058044;28;20941;-53
2021/09/23 08:21:59;;;;;;;9.60;8.70;;;17.40;99.90;;;;;;5057077;28;20466;-53
2021/09/23 08:24:26;;;;;;;10.10;9.10;;;17.60;99.90;;;;;;5057241;28;20889;-50
2021/09/23 08:26:53;;;;;;;9.00;8.10;;;17.40;99.90;;;;;;5057687;28;20526;-48
2021/09/23 08:29:21;;;;;;;10.30;9.33;;;17.40;99.90;;;;;;5057568;28;20491;-50
2021/09/23 08:31:48;;;;;;;8.67;7.83;;;17.70;99.90;;;;;;5057511;28;20462;-53
2021/09/23 08:34:18;;;;;;;11.20;7.97;;;18.00;99.90;;;;;;5056019;28;20463;-52
2021/09/23 08:36:45;;;;;;;9.20;8.30;;;18.20;99.90;;;;;;5057639;28;20484;-53
2021/09/23 08:39:13;;;;;;;10.10;8.53;;;18.20;99.90;;;;;;5057067;28;20825;-53
2021/09/23 08:41:42;;;;;;;9.60;8.60;;;18.60;99.90;;;;;;5056818;28;20463;-50
2021/09/23 08:44:12;;;;;;;9.20;8.30;;;18.70;99.90;;;;;;5056639;28;20470;-50
2021/09/23 08:46:39;;;;;;;8.70;8.00;;;18.50;99.90;;;;;;5057364;28;20583;-52
2021/09/23 08:49:08;;;;;;;11.00;8.47;;;18.80;99.90;;;;;;5056396;28;20501;-50
2021/09/23 08:51:38;;;;;;;8.93;8.13;;;19.00;99.90;;;;;;5057154;28;20473;-49
2021/09/23 08:54:06;;;;;;;8.17;7.47;;;18.80;99.90;;;;;;5056417;28;20832;-50
2021/09/23 08:56:33;;;;;;;10.13;8.70;;;18.80;99.90;;;;;;5056924;28;20502;-54
2021/09/23 08:59:00;;;;;;;8.47;7.67;;;19.10;99.90;;;;;;5056749;28;20462;-49
2021/09/23 09:01:35;;;;;;;8.70;7.90;;;19.50;99.90;;;;;;5057236;28;20512;-53
2021/09/23 09:04:04;;;;;;;7.87;7.17;;;20.00;99.90;;;;;;5056090;28;20468;-50
2021/09/23 09:06:33;;;;;;;10.87;7.83;;;19.90;99.90;;;;;;5057373;28;20544;-46
2021/09/23 09:09:02;;;;;;;8.77;7.90;;;19.90;99.90;;;;;;5056782;28;20927;-49
2021/09/23 09:11:30;;;;;;;8.67;7.90;;;19.90;99.90;;;;;;5038928;28;20549;-48
2021/09/23 09:13:57;;;;;;;8.30;7.50;;;20.00;99.90;;;;;;5044058;28;20493;-49
2021/09/23 09:16:27;;;;;;;8.57;7.93;;;19.60;99.90;;;;;;5057023;28;20462;-48
2021/09/23 09:18:56;;;;;;;11.07;7.97;;;19.50;99.90;;;;;;5055988;28;20884;-46
2021/09/23 09:21:26;;;;;;;9.17;7.47;;;19.60;99.90;;;;;;5056408;28;20511;-46
2021/09/23 09:23:56;;;;;;;8.77;7.60;;;19.90;99.90;;;;;;5055467;28;20489;-47
2021/09/23 09:26:32;;;;;;;11.13;7.73;;;19.50;99.90;;;;;;5056894;28;20532;-46
2021/09/23 09:29:00;;;;;;;13.63;8.00;;;19.70;99.90;;;;;;5055902;28;20465;-49
2021/09/23 09:31:28;;;;;;;9.43;8.53;;;19.60;99.90;;;;;;5056363;28;20482;-46
2021/09/23 09:34:01;;;;;;;8.67;7.77;;;19.60;99.90;;;;;;5056158;28;20512;-46
2021/09/23 09:36:31;;;;;;;8.47;7.37;;;19.90;99.90;;;;;;5056934;28;20963;-46
2021/09/23 09:39:03;;;;;;;7.90;7.00;;;19.90;99.90;;;;;;5040715;28;20868;-49
2021/09/23 09:41:34;;;;;;;8.00;6.77;;;19.90;99.90;;;;;;5056802;28;20432;-46
2021/09/23 09:44:04;;;;;;;8.43;7.43;;;20.00;99.90;;;;;;5055943;28;20488;-46
2021/09/23 09:46:33;;;;;;;8.63;7.43;;;20.00;99.90;;;;;;5056331;28;20577;-46
2021/09/23 09:49:03;;;;;;;7.80;7.10;;;20.10;99.90;;;;;;5055775;28;20480;-46
2021/09/23 09:51:40;;;;;;;9.73;7.27;;;20.30;99.90;;;;;;5060662;28;20457;-46
2021/09/23 09:54:11;;;;;;;8.13;7.27;;;20.70;99.90;;;;;;5059638;28;20457;-48
2021/09/23 09:56:41;;;;;;;8.37;7.13;;;21.00;99.90;;;;;;5060735;28;20872;-47
2021/09/23 09:59:12;;;;;;;7.63;6.90;;;20.80;99.90;;;;;;5060576;28;20893;-47
2021/09/23 10:01:42;;;;;;;8.27;7.33;;;20.70;99.90;;;;;;5060028;28;20947;-46
2021/09/23 10:04:13;;;;;;;8.40;7.20;;;20.80;99.90;;;;;;5057468;28;20467;-51
2021/09/23 10:06:45;;;;;;;8.27;7.47;;;21.00;99.90;;;;;;5039478;28;20491;-48
2021/09/23 10:09:17;;;;;;;7.97;7.20;;;21.00;99.90;;;;;;5045755;28;20550;-52
2021/09/23 10:11:54;;;;;;;9.73;8.50;;;21.30;99.90;;;;;;5039077;28;20459;-51
2021/09/23 10:14:23;;;;;;;8.43;7.07;;;21.20;99.90;;;;;;5052403;28;20787;-52
2021/09/23 10:16:56;;;;;;;7.83;7.13;;;20.70;99.90;;;;;;5060209;28;20472;-52
2021/09/23 10:19:24;;;;;;;8.63;7.53;;;20.80;99.90;;;;;;5059183;28;20470;-47
2021/09/23 10:21:51;;;;;;;12.63;8.40;;;21.00;99.90;;;;;;5059480;28;20515;-47
2021/09/23 10:24:21;;;;;;;7.53;6.80;;;20.90;99.90;;;;;;5059713;28;20838;-52
2021/09/23 10:26:52;;;;;;;8.00;7.30;;;21.20;99.90;;;;;;5059385;28;20486;-49
2021/09/23 10:29:21;;;;;;;8.10;7.20;;;21.30;99.90;;;;;;5059855;28;20662;-54
2021/09/23 10:31:48;;;;;;;8.23;7.40;;;21.60;99.90;;;;;;5058545;28;20492;-52
2021/09/23 10:34:19;;;;;;;8.47;7.67;;;21.70;99.90;;;;;;5059482;28;20580;-46
2021/09/23 10:36:47;;;;;;;9.63;7.03;;;21.40;99.90;;;;;;5059916;28;20935;-48
2021/09/23 10:39:17;;;;;;;7.87;6.90;;;21.60;99.90;;;;;;5059932;28;20958;-47
2021/09/23 10:41:44;;;;;;;8.50;7.60;;;21.60;99.90;;;;;;5058840;28;20515;-50
2021/09/23 10:44:13;;;;;;;7.97;6.30;;;21.50;99.90;;;;;;5059708;28;20466;-50
2021/09/23 10:46:41;;;;;;;8.23;7.37;;;21.50;99.90;;;;;;5058277;28;20595;-47
2021/09/23 10:49:13;;;;;;;7.60;6.90;;;21.70;99.90;;;;;;5059535;28;20466;-50
2021/09/23 10:51:43;;;;;;;10.93;7.67;;;21.50;99.90;;;;;;5059538;28;20503;-49
2021/09/23 10:54:12;;;;;;;8.00;7.07;;;21.50;99.90;;;;;;5059518;28;20476;-48
2021/09/23 10:56:46;;;;;;;7.77;7.00;;;21.40;99.90;;;;;;5044437;28;20462;-47
2021/09/23 10:59:25;;;;;;;6.97;6.37;;;21.20;99.90;;;;;;5039516;28;20572;-47
2021/09/23 11:01:55;;;;;;;8.43;7.50;;;21.20;99.90;;;;;;5037636;28;20471;-51
2021/09/23 11:04:23;;;;;;;9.27;7.53;;;21.00;99.90;;;;;;5039304;28;20890;-54
2021/09/23 11:06:55;;;;;;;7.53;6.93;;;20.90;99.90;;;;;;5050486;28;20547;-47
2021/09/23 11:09:23;;;;;;;8.33;6.30;;;21.30;99.90;;;;;;5053386;28;20458;-51
2021/09/23 11:11:55;;;;;;;7.20;6.50;;;21.80;99.90;;;;;;5058161;28;20466;-52
2021/09/23 11:14:25;;;;;;;8.13;6.43;;;22.40;99.90;;;;;;5057569;28;20473;-55
2021/09/23 11:16:54;;;;;;;8.43;7.00;;;22.80;99.90;;;;;;5057859;28;20494;-57
2021/09/23 11:19:24;;;;;;;7.90;6.43;;;23.00;99.90;;;;;;5038429;28;20467;-51
2021/09/23 11:21:58;;;;;;;7.93;5.77;;;22.90;99.90;;;;;;5046657;28;20470;-53
2021/09/23 11:24:29;;;;;;;7.40;6.20;;;22.90;99.90;;;;;;5057130;28;20462;-52
2021/09/23 11:26:59;;;;;;;7.33;6.23;;;23.00;99.90;;;;;;5054992;28;20485;-49
2021/09/23 11:29:29;;;;;;;6.80;6.20;;;22.70;99.90;;;;;;5045985;28;20473;-49
2021/09/23 11:31:57;;;;;;;6.53;5.90;;;22.80;99.90;;;;;;5037748;28;20470;-50
2021/09/23 11:34:34;;;;;;;9.83;6.67;;;22.90;99.90;;;;;;5045752;28;20508;-50
2021/09/23 11:37:02;;;;;;;6.53;5.83;;;22.60;99.90;;;;;;5058052;28;20501;-53
2021/09/23 11:39:30;;;;;;;7.70;6.23;;;22.80;99.90;;;;;;5058436;28;20473;-53
2021/09/23 11:42:11;;;;;;;6.80;6.20;;;23.00;99.90;;;;;;5057980;28;20458;-53
2021/09/23 11:44:42;;;;;;;6.80;6.10;;;22.70;99.90;;;;;;5057216;28;20954;-48
2021/09/23 11:47:15;;;;;;;7.93;7.07;;;22.50;99.90;;;;;;5057714;28;20521;-50
2021/09/23 11:49:49;;;;;;;10.10;7.57;;;22.50;99.90;;;;;;5058075;28;20462;-50
2021/09/23 11:52:16;;;;;;;9.23;5.90;;;22.50;99.90;;;;;;5058422;28;20912;-54
2021/09/23 11:54:46;;;;;;;6.90;6.30;;;22.50;99.90;;;;;;5058329;28;20462;-53
2021/09/23 11:57:25;;;;;;;10.77;7.27;;;22.10;99.90;;;;;;5057021;28;20458;-50
2021/09/23 11:59:58;;;;;;;10.60;6.50;;;22.50;99.90;;;;;;5058262;28;20560;-49
2021/09/23 12:02:25;;;;;;;7.50;6.27;;;22.50;99.90;;;;;;5056747;28;20516;-49
2021/09/23 12:04:54;;;;;;;7.37;6.30;;;22.80;99.90;;;;;;5057693;28;20503;-50
2021/09/23 12:07:26;;;;;;;7.77;6.47;;;22.90;99.90;;;;;;5057069;28;20580;-57
2021/09/23 12:10:04;;;;;;;8.97;6.70;;;23.10;99.90;;;;;;5055882;28;20458;-53
2021/09/23 12:12:31;;;;;;;10.33;7.00;;;23.10;99.90;;;;;;5056803;28;20890;-52
2021/09/23 12:15:00;;;;;;;8.53;7.60;;;23.60;99.90;;;;;;5057565;28;20837;-50
2021/09/23 12:17:27;;;;;;;9.07;5.80;;;23.40;99.90;;;;;;5057571;28;20544;-54
2021/09/23 12:20:02;;;;;;;7.33;6.70;;;23.90;99.90;;;;;;5057792;28;20925;-50
2021/09/23 12:22:31;;;;;;;7.83;7.03;;;24.00;99.90;;;;;;5057527;28;20515;-51
2021/09/23 12:24:58;;;;;;;8.63;7.73;;;23.90;99.90;;;;;;5056807;28;20466;-49
2021/09/23 12:27:27;;;;;;;9.93;6.50;;;23.30;99.90;;;;;;5057151;28;20494;-53
2021/09/23 12:29:59;;;;;;;7.63;6.77;;;23.30;99.90;;;;;;5055033;28;20573;-53
2021/09/23 12:32:37;;;;;;;10.20;7.53;;;23.40;99.90;;;;;;5057151;28;20515;-53
2021/09/23 12:35:18;;;;;;;9.73;7.60;;;23.50;99.90;;;;;;5056094;28;20469;-50
2021/09/23 12:37:45;;;;;;;8.73;7.90;;;23.10;99.90;;;;;;5056927;28;20984;-48
2021/09/23 12:40:19;;;;;;;8.43;7.40;;;23.60;99.90;;;;;;5054702;28;20473;-49
2021/09/23 12:42:46;;;;;;;7.47;6.87;;;23.60;99.90;;;;;;5037865;28;20483;-52
2021/09/23 12:45:16;;;;;;;8.73;7.87;;;23.50;99.90;;;;;;5057171;28;20950;-56